Station Historical Data
Daily Summary for August 5, 2012 Units:  Both    English   Metric
« Previous Day
Next Day »
Daily Weekly Monthly Yearly Custom
  High: Low: Average:
Temperature: 85.1 °F /  29.5 °C 74.3 °F /  23.5 °C 77.4 °F /  25.2 °C
Dew Point: 78.4 °F /  25.8 °C 71.6 °F /  22 °C 74.2 °F /  23.4 °C
Humidity: 92% 78% 90%
Wind Speed: 13.0mph /  20.9km/h - 3mph /  4.8km/h
Wind Gust: 14.0mph /  22.5km/h - -
Wind- - SE
Pressure: 30.11 in /  1019.5 hPa 30.00 in /  1015.8 hPa -
Precipitation: 0.03 in /  0.76 mm    
Historical Graphs
 
 
Tabular Data for August 5, 2012
Time Temperature Dew Point Pressure Wind Wind Speed Wind Gust Humidity Rainfall Rate (Hourly) Conditions
00:00 74.9 °F /  23.8 °C 72.4 °F /  22.4 °C 30.01in /  1016.1hPa SSE 5.0mph /  8km/h 7.0mph /  11.3km/h 92% 0.00in /  0mm
00:01 74.9 °F /  23.8 °C 72.4 °F /  22.4 °C 30.01in /  1016.1hPa SE 4.0mph /  6.4km/h 7.0mph /  11.3km/h 92% 0.00in /  0mm
00:06 75.0 °F /  23.9 °C 72.5 °F /  22.5 °C 30.01in /  1016.1hPa SE 5.0mph /  8km/h 8.0mph /  12.9km/h 92% 0.00in /  0mm
00:11 75.1 °F /  23.9 °C 72.6 °F /  22.6 °C 30.01in /  1016.1hPa ESE 7.0mph /  11.3km/h 10.0mph /  16.1km/h 92% 0.00in /  0mm
00:16 75.2 °F /  24 °C 72.7 °F /  22.6 °C 30.02in /  1016.5hPa SE 6.0mph /  9.7km/h 7.0mph /  11.3km/h 92% 0.00in /  0mm
00:21 75.2 °F /  24 °C 72.7 °F /  22.6 °C 30.01in /  1016.1hPa SSE 7.0mph /  11.3km/h 9.0mph /  14.5km/h 92% 0.00in /  0mm
00:26 75.4 °F /  24.1 °C 72.9 °F /  22.7 °C 30.01in /  1016.1hPa SE 7.0mph /  11.3km/h 8.0mph /  12.9km/h 92% 0.00in /  0mm
00:32 75.5 °F /  24.2 °C 73.0 °F /  22.8 °C 30.01in /  1016.1hPa SSE 6.0mph /  9.7km/h 8.0mph /  12.9km/h 92% 0.00in /  0mm
00:37 75.6 °F /  24.2 °C 73.1 °F /  22.8 °C 30.01in /  1016.1hPa SSE 4.0mph /  6.4km/h 8.0mph /  12.9km/h 92% 0.00in /  0mm
00:42 75.6 °F /  24.2 °C 73.1 °F /  22.8 °C 30.01in /  1016.1hPa SE 6.0mph /  9.7km/h 7.0mph /  11.3km/h 92% 0.00in /  0mm
00:47 75.7 °F /  24.3 °C 73.2 °F /  22.9 °C 30.02in /  1016.5hPa SSE 4.0mph /  6.4km/h 8.0mph /  12.9km/h 92% 0.00in /  0mm
00:52 75.7 °F /  24.3 °C 73.2 °F /  22.9 °C 30.01in /  1016.1hPa ESE 7.0mph /  11.3km/h 8.0mph /  12.9km/h 92% 0.00in /  0mm
00:57 75.7 °F /  24.3 °C 73.2 °F /  22.9 °C 30.02in /  1016.5hPa SE 4.0mph /  6.4km/h 8.0mph /  12.9km/h 92% 0.00in /  0mm
01:02 75.7 °F /  24.3 °C 73.2 °F /  22.9 °C 30.02in /  1016.5hPa SE 7.0mph /  11.3km/h 8.0mph /  12.9km/h 92% 0.00in /  0mm
01:07 75.7 °F /  24.3 °C 73.2 °F /  22.9 °C 30.02in /  1016.5hPa SE 5.0mph /  8km/h 8.0mph /  12.9km/h 92% 0.00in /  0mm
01:12 75.7 °F /  24.3 °C 73.2 °F /  22.9 °C 30.02in /  1016.5hPa SE 4.0mph /  6.4km/h 7.0mph /  11.3km/h 92% 0.00in /  0mm
01:17 75.8 °F /  24.3 °C 73.3 °F /  22.9 °C 30.02in /  1016.5hPa SE 5.0mph /  8km/h 9.0mph /  14.5km/h 92% 0.00in /  0mm
01:22 75.8 °F /  24.3 °C 73.3 °F /  22.9 °C 30.02in /  1016.5hPa SE 4.0mph /  6.4km/h 6.0mph /  9.7km/h 92% 0.00in /  0mm
01:27 75.8 °F /  24.3 °C 73.3 °F /  22.9 °C 30.03in /  1016.8hPa SE 5.0mph /  8km/h 6.0mph /  9.7km/h 92% 0.00in /  0mm
01:32 75.8 °F /  24.3 °C 73.3 °F /  22.9 °C 30.03in /  1016.8hPa SE 3.0mph /  4.8km/h 4.0mph /  6.4km/h 92% 0.00in /  0mm
01:37 75.7 °F /  24.3 °C 73.2 °F /  22.9 °C 30.03in /  1016.8hPa SE 4.0mph /  6.4km/h 5.0mph /  8km/h 92% 0.00in /  0mm
01:42 75.7 °F /  24.3 °C 73.2 °F /  22.9 °C 30.03in /  1016.8hPa ESE 4.0mph /  6.4km/h 5.0mph /  8km/h 92% 0.00in /  0mm
01:47 75.7 °F /  24.3 °C 73.2 °F /  22.9 °C 30.03in /  1016.8hPa SE 1.0mph /  1.6km/h 6.0mph /  9.7km/h 92% 0.00in /  0mm
01:52 75.7 °F /  24.3 °C 73.2 °F /  22.9 °C 30.03in /  1016.8hPa SE 4.0mph /  6.4km/h 5.0mph /  8km/h 92% 0.00in /  0mm
01:57 75.8 °F /  24.3 °C 73.3 °F /  22.9 °C 30.03in /  1016.8hPa SE 4.0mph /  6.4km/h 5.0mph /  8km/h 92% 0.00in /  0mm
02:02 75.8 °F /  24.3 °C 73.3 °F /  22.9 °C 30.03in /  1016.8hPa SE 4.0mph /  6.4km/h 6.0mph /  9.7km/h 92% 0.00in /  0mm
02:07 75.8 °F /  24.3 °C 73.3 °F /  22.9 °C 30.04in /  1017.2hPa SE 3.0mph /  4.8km/h 5.0mph /  8km/h 92% 0.00in /  0mm
02:12 75.8 °F /  24.3 °C 73.3 °F /  22.9 °C 30.04in /  1017.2hPa SSE 3.0mph /  4.8km/h 4.0mph /  6.4km/h 92% 0.00in /  0mm
02:17 75.7 °F /  24.3 °C 73.2 °F /  22.9 °C 30.04in /  1017.2hPa SSE 2.0mph /  3.2km/h 4.0mph /  6.4km/h 92% 0.00in /  0mm
02:22 75.6 °F /  24.2 °C 73.1 °F /  22.8 °C 30.04in /  1017.2hPa SSE 1.0mph /  1.6km/h 3.0mph /  4.8km/h 92% 0.00in /  0mm
02:27 75.7 °F /  24.3 °C 73.2 °F /  22.9 °C 30.04in /  1017.2hPa SSE 2.0mph /  3.2km/h 3.0mph /  4.8km/h 92% 0.00in /  0mm
02:33 75.6 °F /  24.2 °C 73.1 °F /  22.8 °C 30.04in /  1017.2hPa SE 2.0mph /  3.2km/h 2.0mph /  3.2km/h 92% 0.00in /  0mm
02:38 75.6 °F /  24.2 °C 73.1 °F /  22.8 °C 30.05in /  1017.5hPa SE 1.0mph /  1.6km/h 3.0mph /  4.8km/h 92% 0.00in /  0mm
02:42 75.6 °F /  24.2 °C 73.1 °F /  22.8 °C 30.05in /  1017.5hPa SE 3.0mph /  4.8km/h 3.0mph /  4.8km/h 92% 0.00in /  0mm
02:47 75.6 °F /  24.2 °C 73.1 °F /  22.8 °C 30.05in /  1017.5hPa Calm   2.0mph /  3.2km/h 92% 0.00in /  0mm
02:53 75.6 °F /  24.2 °C 73.1 °F /  22.8 °C 30.04in /  1017.2hPa SE 2.0mph /  3.2km/h 3.0mph /  4.8km/h 92% 0.00in /  0mm
02:58 75.5 °F /  24.2 °C 73.0 °F /  22.8 °C 30.04in /  1017.2hPa SE 4.0mph /  6.4km/h 4.0mph /  6.4km/h 92% 0.00in /  0mm
03:03 75.7 °F /  24.3 °C 73.2 °F /  22.9 °C 30.05in /  1017.5hPa SSE 4.0mph /  6.4km/h 4.0mph /  6.4km/h 92% 0.00in /  0mm
03:08 75.7 °F /  24.3 °C 73.2 °F /  22.9 °C 30.05in /  1017.5hPa SE 1.0mph /  1.6km/h 2.0mph /  3.2km/h 92% 0.00in /  0mm
03:13 75.6 °F /  24.2 °C 73.1 °F /  22.8 °C 30.05in /  1017.5hPa SSE 2.0mph /  3.2km/h 2.0mph /  3.2km/h 92% 0.00in /  0mm
03:18 75.6 °F /  24.2 °C 73.1 °F /  22.8 °C 30.05in /  1017.5hPa SSE 1.0mph /  1.6km/h 1.0mph /  1.6km/h 92% 0.00in /  0mm
03:23 75.5 °F /  24.2 °C 73.0 °F /  22.8 °C 30.05in /  1017.5hPa SSE 1.0mph /  1.6km/h 1.0mph /  1.6km/h 92% 0.00in /  0mm
03:28 75.4 °F /  24.1 °C 72.9 °F /  22.7 °C 30.05in /  1017.5hPa ESE 2.0mph /  3.2km/h 2.0mph /  3.2km/h 92% 0.00in /  0mm
03:33 75.5 °F /  24.2 °C 73.0 °F /  22.8 °C 30.05in /  1017.5hPa SE 3.0mph /  4.8km/h 4.0mph /  6.4km/h 92% 0.00in /  0mm
03:38 75.5 °F /  24.2 °C 73.0 °F /  22.8 °C 30.05in /  1017.5hPa SE 2.0mph /  3.2km/h 4.0mph /  6.4km/h 92% 0.00in /  0mm
03:43 75.5 °F /  24.2 °C 73.0 °F /  22.8 °C 30.05in /  1017.5hPa ESE 2.0mph /  3.2km/h 4.0mph /  6.4km/h 92% 0.00in /  0mm
03:48 75.4 °F /  24.1 °C 72.9 °F /  22.7 °C 30.05in /  1017.5hPa SE 4.0mph /  6.4km/h 5.0mph /  8km/h 92% 0.00in /  0mm
03:53 75.4 °F /  24.1 °C 72.9 °F /  22.7 °C 30.05in /  1017.5hPa SE 4.0mph /  6.4km/h 6.0mph /  9.7km/h 92% 0.00in /  0mm
03:58 75.4 °F /  24.1 °C 72.9 °F /  22.7 °C 30.05in /  1017.5hPa SE 3.0mph /  4.8km/h 4.0mph /  6.4km/h 92% 0.00in /  0mm
04:03 75.4 °F /  24.1 °C 72.9 °F /  22.7 °C 30.05in /  1017.5hPa SE 2.0mph /  3.2km/h 4.0mph /  6.4km/h 92% 0.00in /  0mm
04:08 75.4 °F /  24.1 °C 72.9 °F /  22.7 °C 30.05in /  1017.5hPa ESE 3.0mph /  4.8km/h 4.0mph /  6.4km/h 92% 0.00in /  0mm
04:13 75.3 °F /  24.1 °C 72.8 °F /  22.7 °C 30.05in /  1017.5hPa ESE 3.0mph /  4.8km/h 5.0mph /  8km/h 92% 0.00in /  0mm
04:18 75.3 °F /  24.1 °C 72.8 °F /  22.7 °C 30.05in /  1017.5hPa SE 3.0mph /  4.8km/h 4.0mph /  6.4km/h 92% 0.00in /  0mm
04:23 75.2 °F /  24 °C 72.7 °F /  22.6 °C 30.05in /  1017.5hPa SE 2.0mph /  3.2km/h 4.0mph /  6.4km/h 92% 0.00in /  0mm
04:28 75.2 °F /  24 °C 72.7 °F /  22.6 °C 30.05in /  1017.5hPa ESE 2.0mph /  3.2km/h 4.0mph /  6.4km/h 92% 0.00in /  0mm
04:33 75.1 °F /  23.9 °C 72.6 °F /  22.6 °C 30.05in /  1017.5hPa SE 2.0mph /  3.2km/h 3.0mph /  4.8km/h 92% 0.00in /  0mm
04:38 75.1 °F /  23.9 °C 72.6 °F /  22.6 °C 30.05in /  1017.5hPa SE 4.0mph /  6.4km/h 5.0mph /  8km/h 92% 0.00in /  0mm
04:43 75.0 °F /  23.9 °C 72.5 °F /  22.5 °C 30.05in /  1017.5hPa SE 2.0mph /  3.2km/h 5.0mph /  8km/h 92% 0.00in /  0mm
04:48 75.0 °F /  23.9 °C 72.5 °F /  22.5 °C 30.04in /  1017.2hPa SE 4.0mph /  6.4km/h 5.0mph /  8km/h 92% 0.00in /  0mm
04:53 74.9 °F /  23.8 °C 72.4 °F /  22.4 °C 30.04in /  1017.2hPa SE 3.0mph /  4.8km/h 5.0mph /  8km/h 92% 0.00in /  0mm
04:58 74.9 °F /  23.8 °C 72.4 °F /  22.4 °C 30.04in /  1017.2hPa SE 6.0mph /  9.7km/h 6.0mph /  9.7km/h 92% 0.00in /  0mm
05:03 75.0 °F /  23.9 °C 72.5 °F /  22.5 °C 30.05in /  1017.5hPa SE 3.0mph /  4.8km/h 6.0mph /  9.7km/h 92% 0.00in /  0mm
05:08 75.1 °F /  23.9 °C 72.6 °F /  22.6 °C 30.04in /  1017.2hPa SE 4.0mph /  6.4km/h 6.0mph /  9.7km/h 92% 0.00in /  0mm
05:13 75.1 °F /  23.9 °C 72.6 °F /  22.6 °C 30.05in /  1017.5hPa ESE 5.0mph /  8km/h 6.0mph /  9.7km/h 92% 0.00in /  0mm
05:18 75.1 °F /  23.9 °C 72.6 °F /  22.6 °C 30.05in /  1017.5hPa SE 3.0mph /  4.8km/h 5.0mph /  8km/h 92% 0.00in /  0mm
05:23 75.0 °F /  23.9 °C 72.5 °F /  22.5 °C 30.05in /  1017.5hPa SE 3.0mph /  4.8km/h 4.0mph /  6.4km/h 92% 0.00in /  0mm
05:28 75.1 °F /  23.9 °C 72.6 °F /  22.6 °C 30.05in /  1017.5hPa SE 3.0mph /  4.8km/h 6.0mph /  9.7km/h 92% 0.00in /  0mm
05:33 75.1 °F /  23.9 °C 72.6 °F /  22.6 °C 30.05in /  1017.5hPa SE 4.0mph /  6.4km/h 6.0mph /  9.7km/h 92% 0.00in /  0mm
05:38 75.1 °F /  23.9 °C 72.6 °F /  22.6 °C 30.05in /  1017.5hPa SE 4.0mph /  6.4km/h 5.0mph /  8km/h 92% 0.00in /  0mm
05:43 75.1 °F /  23.9 °C 72.6 °F /  22.6 °C 30.05in /  1017.5hPa SE 5.0mph /  8km/h 6.0mph /  9.7km/h 92% 0.00in /  0mm
05:48 75.0 °F /  23.9 °C 72.5 °F /  22.5 °C 30.04in /  1017.2hPa SSE 6.0mph /  9.7km/h 7.0mph /  11.3km/h 92% 0.00in /  0mm
05:54 74.9 °F /  23.8 °C 72.4 °F /  22.4 °C 30.04in /  1017.2hPa SSE 3.0mph /  4.8km/h 7.0mph /  11.3km/h 92% 0.00in /  0mm
05:59 74.8 °F /  23.8 °C 72.3 °F /  22.4 °C 30.04in /  1017.2hPa ESE 6.0mph /  9.7km/h 7.0mph /  11.3km/h 92% 0.00in /  0mm
06:04 74.8 °F /  23.8 °C 72.3 °F /  22.4 °C 30.04in /  1017.2hPa SE 4.0mph /  6.4km/h 7.0mph /  11.3km/h 92% 0.00in /  0mm
06:08 74.7 °F /  23.7 °C 72.2 °F /  22.3 °C 30.04in /  1017.2hPa SE 4.0mph /  6.4km/h 7.0mph /  11.3km/h 92% 0.00in /  0mm
06:14 74.8 °F /  23.8 °C 72.3 °F /  22.4 °C 30.04in /  1017.2hPa ESE 6.0mph /  9.7km/h 8.0mph /  12.9km/h 92% 0.00in /  0mm
06:19 74.8 °F /  23.8 °C 72.3 °F /  22.4 °C 30.05in /  1017.5hPa SE 5.0mph /  8km/h 10.0mph /  16.1km/h 92% 0.00in /  0mm
06:24 74.8 °F /  23.8 °C 72.3 °F /  22.4 °C 30.04in /  1017.2hPa SE 6.0mph /  9.7km/h 7.0mph /  11.3km/h 92% 0.00in /  0mm
06:29 74.8 °F /  23.8 °C 72.3 °F /  22.4 °C 30.05in /  1017.5hPa ESE 3.0mph /  4.8km/h 8.0mph /  12.9km/h 92% 0.00in /  0mm
06:34 74.8 °F /  23.8 °C 72.3 °F /  22.4 °C 30.05in /  1017.5hPa SE 7.0mph /  11.3km/h 8.0mph /  12.9km/h 92% 0.00in /  0mm
06:39 74.8 °F /  23.8 °C 72.3 °F /  22.4 °C 30.04in /  1017.2hPa SE 7.0mph /  11.3km/h 9.0mph /  14.5km/h 92% 0.00in /  0mm
06:44 74.7 °F /  23.7 °C 72.2 °F /  22.3 °C 30.04in /  1017.2hPa ESE 5.0mph /  8km/h 9.0mph /  14.5km/h 92% 0.00in /  0mm
06:49 74.6 °F /  23.7 °C 72.1 °F /  22.3 °C 30.05in /  1017.5hPa SE 5.0mph /  8km/h 6.0mph /  9.7km/h 92% 0.00in /  0mm
06:54 74.5 °F /  23.6 °C 72.0 °F /  22.2 °C 30.04in /  1017.2hPa ESE 5.0mph /  8km/h 9.0mph /  14.5km/h 92% 0.00in /  0mm
06:59 74.5 °F /  23.6 °C 72.0 °F /  22.2 °C 30.04in /  1017.2hPa SE 7.0mph /  11.3km/h 7.0mph /  11.3km/h 92% 0.00in /  0mm
07:04 74.4 °F /  23.6 °C 71.9 °F /  22.2 °C 30.04in /  1017.2hPa SE 4.0mph /  6.4km/h 6.0mph /  9.7km/h 92% 0.00in /  0mm
07:09 74.4 °F /  23.6 °C 71.9 °F /  22.2 °C 30.05in /  1017.5hPa SE 4.0mph /  6.4km/h 7.0mph /  11.3km/h 92% 0.00in /  0mm
07:14 74.4 °F /  23.6 °C 71.9 °F /  22.2 °C 30.05in /  1017.5hPa SSE 2.0mph /  3.2km/h 5.0mph /  8km/h 92% 0.00in /  0mm
07:19 74.4 °F /  23.6 °C 71.9 °F /  22.2 °C 30.05in /  1017.5hPa ESE 3.0mph /  4.8km/h 4.0mph /  6.4km/h 92% 0.00in /  0mm
07:24 74.3 °F /  23.5 °C 71.8 °F /  22.1 °C 30.06in /  1017.8hPa SSE 2.0mph /  3.2km/h 4.0mph /  6.4km/h 92% 0.00in /  0mm
07:29 74.3 °F /  23.5 °C 71.8 °F /  22.1 °C 30.06in /  1017.8hPa SE 2.0mph /  3.2km/h 3.0mph /  4.8km/h 92% 0.00in /  0mm
07:34 74.3 °F /  23.5 °C 71.8 °F /  22.1 °C 30.06in /  1017.8hPa SSE 2.0mph /  3.2km/h 3.0mph /  4.8km/h 92% 0.00in /  0mm
07:39 74.3 °F /  23.5 °C 71.8 °F /  22.1 °C 30.06in /  1017.8hPa SE 3.0mph /  4.8km/h 3.0mph /  4.8km/h 92% 0.00in /  0mm
07:44 74.4 °F /  23.6 °C 71.9 °F /  22.2 °C 30.06in /  1017.8hPa SSE 3.0mph /  4.8km/h 4.0mph /  6.4km/h 92% 0.00in /  0mm
07:49 74.5 °F /  23.6 °C 72.0 °F /  22.2 °C 30.06in /  1017.8hPa SE 2.0mph /  3.2km/h 4.0mph /  6.4km/h 92% 0.00in /  0mm
07:54 74.6 °F /  23.7 °C 72.1 °F /  22.3 °C 30.06in /  1017.8hPa SE 3.0mph /  4.8km/h 4.0mph /  6.4km/h 92% 0.00in /  0mm
07:59 74.9 °F /  23.8 °C 72.4 °F /  22.4 °C 30.06in /  1017.8hPa SE 4.0mph /  6.4km/h 5.0mph /  8km/h 92% 0.00in /  0mm
08:04 75.0 °F /  23.9 °C 72.5 °F /  22.5 °C 30.06in /  1017.8hPa SE 5.0mph /  8km/h 5.0mph /  8km/h 92% 0.00in /  0mm
08:09 75.3 °F /  24.1 °C 72.8 °F /  22.7 °C 30.06in /  1017.8hPa SE 3.0mph /  4.8km/h 5.0mph /  8km/h 92% 0.00in /  0mm
08:14 75.5 °F /  24.2 °C 73.0 °F /  22.8 °C 30.06in /  1017.8hPa SE 5.0mph /  8km/h 6.0mph /  9.7km/h 92% 0.00in /  0mm
08:19 75.8 °F /  24.3 °C 73.0 °F /  22.8 °C 30.06in /  1017.8hPa South 4.0mph /  6.4km/h 9.0mph /  14.5km/h 91% 0.00in /  0mm
08:24 76.0 °F /  24.4 °C 73.2 °F /  22.9 °C 30.06in /  1017.8hPa SE 5.0mph /  8km/h 6.0mph /  9.7km/h 91% 0.00in /  0mm
08:29 76.3 °F /  24.6 °C 73.5 °F /  23.1 °C 30.07in /  1018.2hPa SE 5.0mph /  8km/h 6.0mph /  9.7km/h 91% 0.00in /  0mm
08:34 76.5 °F /  24.7 °C 73.7 °F /  23.2 °C 30.07in /  1018.2hPa SSE 6.0mph /  9.7km/h 9.0mph /  14.5km/h 91% 0.00in /  0mm
08:39 76.7 °F /  24.8 °C 73.9 °F /  23.3 °C 30.07in /  1018.2hPa SSW 5.0mph /  8km/h 7.0mph /  11.3km/h 91% 0.00in /  0mm
08:44 77.0 °F /  25 °C 73.8 °F /  23.2 °C 30.07in /  1018.2hPa SE 3.0mph /  4.8km/h 7.0mph /  11.3km/h 90% 0.00in /  0mm
08:49 77.5 °F /  25.3 °C 74.3 °F /  23.5 °C 30.08in /  1018.5hPa SE 3.0mph /  4.8km/h 4.0mph /  6.4km/h 90% 0.00in /  0mm
08:54 77.6 °F /  25.3 °C 74.4 °F /  23.6 °C 30.08in /  1018.5hPa SSE 5.0mph /  8km/h 6.0mph /  9.7km/h 90% 0.00in /  0mm
08:59 77.5 °F /  25.3 °C 74.0 °F /  23.3 °C 30.08in /  1018.5hPa SSE 3.0mph /  4.8km/h 7.0mph /  11.3km/h 89% 0.00in /  0mm
09:04 77.5 °F /  25.3 °C 74.3 °F /  23.5 °C 30.08in /  1018.5hPa SE 5.0mph /  8km/h 7.0mph /  11.3km/h 90% 0.00in /  0mm
09:09 77.4 °F /  25.2 °C 74.2 °F /  23.4 °C 30.08in /  1018.5hPa SE 4.0mph /  6.4km/h 5.0mph /  8km/h 90% 0.00in /  0mm
09:14 77.5 °F /  25.3 °C 74.3 °F /  23.5 °C 30.08in /  1018.5hPa SSE 3.0mph /  4.8km/h 7.0mph /  11.3km/h 90% 0.00in /  0mm
09:19 77.5 °F /  25.3 °C 74.3 °F /  23.5 °C 30.08in /  1018.5hPa SE 5.0mph /  8km/h 7.0mph /  11.3km/h 90% 0.00in /  0mm
09:24 77.6 °F /  25.3 °C 74.4 °F /  23.6 °C 30.08in /  1018.5hPa SSE 6.0mph /  9.7km/h 8.0mph /  12.9km/h 90% 0.00in /  0mm
09:29 77.7 °F /  25.4 °C 74.5 °F /  23.6 °C 30.08in /  1018.5hPa SE 6.0mph /  9.7km/h 8.0mph /  12.9km/h 90% 0.00in /  0mm
09:34 77.8 °F /  25.4 °C 74.6 °F /  23.7 °C 30.09in /  1018.8hPa South 3.0mph /  4.8km/h 6.0mph /  9.7km/h 90% 0.00in /  0mm
09:40 77.9 °F /  25.5 °C 74.7 °F /  23.7 °C 30.08in /  1018.5hPa SSE 6.0mph /  9.7km/h 8.0mph /  12.9km/h 90% 0.00in /  0mm
09:44 78.0 °F /  25.6 °C 74.8 °F /  23.8 °C 30.09in /  1018.8hPa SE 4.0mph /  6.4km/h 7.0mph /  11.3km/h 90% 0.00in /  0mm
09:50 78.0 °F /  25.6 °C 74.5 °F /  23.6 °C 30.09in /  1018.8hPa South 3.0mph /  4.8km/h 8.0mph /  12.9km/h 89% 0.00in /  0mm
09:55 78.0 °F /  25.6 °C 74.8 °F /  23.8 °C 30.10in /  1019.2hPa South 2.0mph /  3.2km/h 7.0mph /  11.3km/h 90% 0.00in /  0mm
10:00 78.1 °F /  25.6 °C 74.9 °F /  23.8 °C 30.09in /  1018.8hPa SW 2.0mph /  3.2km/h 4.0mph /  6.4km/h 90% 0.00in /  0mm
10:05 78.0 °F /  25.6 °C 74.8 °F /  23.8 °C 30.10in /  1019.2hPa SSE 2.0mph /  3.2km/h 4.0mph /  6.4km/h 90% 0.00in /  0mm
10:10 78.1 °F /  25.6 °C 74.9 °F /  23.8 °C 30.10in /  1019.2hPa SSE 4.0mph /  6.4km/h 4.0mph /  6.4km/h 90% 0.00in /  0mm
10:15 78.0 °F /  25.6 °C 74.8 °F /  23.8 °C 30.09in /  1018.8hPa SSE 5.0mph /  8km/h 8.0mph /  12.9km/h 90% 0.00in /  0mm
10:20 77.9 °F /  25.5 °C 74.7 °F /  23.7 °C 30.09in /  1018.8hPa SSE 3.0mph /  4.8km/h 7.0mph /  11.3km/h 90% 0.00in /  0mm
10:25 78.0 °F /  25.6 °C 74.8 °F /  23.8 °C 30.10in /  1019.2hPa SE 3.0mph /  4.8km/h 5.0mph /  8km/h 90% 0.00in /  0mm
10:30 78.2 °F /  25.7 °C 75.0 °F /  23.9 °C 30.10in /  1019.2hPa SW 3.0mph /  4.8km/h 4.0mph /  6.4km/h 90% 0.00in /  0mm
10:35 78.5 °F /  25.8 °C 75.3 °F /  24.1 °C 30.10in /  1019.2hPa SW 2.0mph /  3.2km/h 5.0mph /  8km/h 90% 0.00in /  0mm
10:40 78.9 °F /  26.1 °C 75.4 °F /  24.1 °C 30.10in /  1019.2hPa South 4.0mph /  6.4km/h 6.0mph /  9.7km/h 89% 0.00in /  0mm
10:45 79.3 °F /  26.3 °C 75.8 °F /  24.3 °C 30.10in /  1019.2hPa SSW 4.0mph /  6.4km/h 6.0mph /  9.7km/h 89% 0.00in /  0mm
10:50 79.5 °F /  26.4 °C 75.6 °F /  24.2 °C 30.11in /  1019.5hPa SW 7.0mph /  11.3km/h 7.0mph /  11.3km/h 88% 0.00in /  0mm
10:55 79.7 °F /  26.5 °C 75.5 °F /  24.2 °C 30.11in /  1019.5hPa SW 8.0mph /  12.9km/h 8.0mph /  12.9km/h 87% 0.00in /  0mm
11:00 79.8 °F /  26.6 °C 75.6 °F /  24.2 °C 30.11in /  1019.5hPa SW 7.0mph /  11.3km/h 7.0mph /  11.3km/h 87% 0.00in /  0mm
11:05 79.9 °F /  26.6 °C 75.3 °F /  24.1 °C 30.11in /  1019.5hPa SSW 7.0mph /  11.3km/h 9.0mph /  14.5km/h 86% 0.00in /  0mm
11:10 80.1 °F /  26.7 °C 75.9 °F /  24.4 °C 30.11in /  1019.5hPa SE 4.0mph /  6.4km/h 9.0mph /  14.5km/h 87% 0.00in /  0mm
11:15 80.2 °F /  26.8 °C 75.6 °F /  24.2 °C 30.11in /  1019.5hPa SSE 5.0mph /  8km/h 8.0mph /  12.9km/h 86% 0.00in /  0mm
11:20 80.5 °F /  26.9 °C 75.9 °F /  24.4 °C 30.11in /  1019.5hPa SE 7.0mph /  11.3km/h 9.0mph /  14.5km/h 86% 0.00in /  0mm
11:25 80.6 °F /  27 °C 76.0 °F /  24.4 °C 30.11in /  1019.5hPa SE 8.0mph /  12.9km/h 8.0mph /  12.9km/h 86% 0.00in /  0mm
11:30 80.7 °F /  27.1 °C 75.4 °F /  24.1 °C 30.11in /  1019.5hPa SSE 7.0mph /  11.3km/h 8.0mph /  12.9km/h 84% 0.00in /  0mm
11:35 80.8 °F /  27.1 °C 76.2 °F /  24.6 °C 30.11in /  1019.5hPa South 7.0mph /  11.3km/h 9.0mph /  14.5km/h 86% 0.00in /  0mm
11:40 81.1 °F /  27.3 °C 76.5 °F /  24.7 °C 30.11in /  1019.5hPa South 1.0mph /  1.6km/h 7.0mph /  11.3km/h 86% 0.00in /  0mm
11:45 81.3 °F /  27.4 °C 76.0 °F /  24.4 °C 30.11in /  1019.5hPa South 7.0mph /  11.3km/h 8.0mph /  12.9km/h 84% 0.00in /  0mm
11:50 81.3 °F /  27.4 °C 76.0 °F /  24.4 °C 30.11in /  1019.5hPa SSE 4.0mph /  6.4km/h 9.0mph /  14.5km/h 84% 0.00in /  0mm
11:55 81.4 °F /  27.4 °C 76.1 °F /  24.5 °C 30.10in /  1019.2hPa SSW 4.0mph /  6.4km/h 7.0mph /  11.3km/h 84% 0.00in /  0mm
12:00 81.8 °F /  27.7 °C 76.1 °F /  24.5 °C 30.10in /  1019.2hPa SSE 4.0mph /  6.4km/h 7.0mph /  11.3km/h 83% 0.00in /  0mm
12:05 82.3 °F /  27.9 °C 76.6 °F /  24.8 °C 30.09in /  1018.8hPa SSW 3.0mph /  4.8km/h 11.0mph /  17.7km/h 83% 0.00in /  0mm
12:10 82.9 °F /  28.3 °C 77.2 °F /  25.1 °C 30.09in /  1018.8hPa SSE 8.0mph /  12.9km/h 9.0mph /  14.5km/h 83% 0.00in /  0mm
12:15 83.0 °F /  28.3 °C 76.9 °F /  24.9 °C 30.09in /  1018.8hPa South 6.0mph /  9.7km/h 12.0mph /  19.3km/h 82% 0.00in /  0mm
12:20 83.8 °F /  28.8 °C 78.4 °F /  25.8 °C 30.08in /  1018.5hPa SE 6.0mph /  9.7km/h 11.0mph /  17.7km/h 84% 0.00in /  0mm
12:25 83.9 °F /  28.8 °C 77.4 °F /  25.2 °C 30.08in /  1018.5hPa SE 13.0mph /  20.9km/h 14.0mph /  22.5km/h 81% 0.00in /  0mm
12:30 84.1 °F /  28.9 °C 78.0 °F /  25.6 °C 30.08in /  1018.5hPa SSE 10.0mph /  16.1km/h 13.0mph /  20.9km/h 82% 0.00in /  0mm
12:35 84.2 °F /  29 °C 77.4 °F /  25.2 °C 30.08in /  1018.5hPa South 6.0mph /  9.7km/h 9.0mph /  14.5km/h 80% 0.00in /  0mm
12:40 84.8 °F /  29.3 °C 77.6 °F /  25.3 °C 30.08in /  1018.5hPa SW 7.0mph /  11.3km/h 10.0mph /  16.1km/h 79% 0.00in /  0mm
12:45 85.1 °F /  29.5 °C 77.5 °F /  25.3 °C 30.08in /  1018.5hPa South 10.0mph /  16.1km/h 14.0mph /  22.5km/h 78% 0.00in /  0mm
12:50 84.7 °F /  29.3 °C 77.5 °F /  25.3 °C 30.08in /  1018.5hPa SSW 6.0mph /  9.7km/h 9.0mph /  14.5km/h 79% 0.00in /  0mm
12:55 84.8 °F /  29.3 °C 77.9 °F /  25.5 °C 30.08in /  1018.5hPa SW 4.0mph /  6.4km/h 12.0mph /  19.3km/h 80% 0.00in /  0mm
13:00 84.3 °F /  29.1 °C 77.1 °F /  25.1 °C 30.08in /  1018.5hPa SW 7.0mph /  11.3km/h 12.0mph /  19.3km/h 79% 0.00in /  0mm
13:05 83.7 °F /  28.7 °C 77.2 °F /  25.1 °C 30.08in /  1018.5hPa SW 6.0mph /  9.7km/h 12.0mph /  19.3km/h 81% 0.00in /  0mm
13:10 83.2 °F /  28.4 °C 76.8 °F /  24.9 °C 30.08in /  1018.5hPa West 7.0mph /  11.3km/h 9.0mph /  14.5km/h 81% 0.00in /  0mm
13:15 82.9 °F /  28.3 °C 77.2 °F /  25.1 °C 30.08in /  1018.5hPa SSW 6.0mph /  9.7km/h 8.0mph /  12.9km/h 83% 0.00in /  0mm
13:20 83.1 °F /  28.4 °C 77.4 °F /  25.2 °C 30.08in /  1018.5hPa SW 6.0mph /  9.7km/h 7.0mph /  11.3km/h 83% 0.00in /  0mm
13:25 83.3 °F /  28.5 °C 76.9 °F /  24.9 °C 30.08in /  1018.5hPa SW 8.0mph /  12.9km/h 8.0mph /  12.9km/h 81% 0.00in /  0mm
13:30 83.3 °F /  28.5 °C 76.9 °F /  24.9 °C 30.08in /  1018.5hPa WSW 3.0mph /  4.8km/h 9.0mph /  14.5km/h 81% 0.00in /  0mm
13:35 82.6 °F /  28.1 °C 76.9 °F /  24.9 °C 30.08in /  1018.5hPa NW 3.0mph /  4.8km/h 8.0mph /  12.9km/h 83% 0.00in /  0mm
13:40 81.7 °F /  27.6 °C 76.4 °F /  24.7 °C 30.07in /  1018.2hPa WNW 2.0mph /  3.2km/h 5.0mph /  8km/h 84% 0.00in /  0mm
13:46 81.0 °F /  27.2 °C 76.4 °F /  24.7 °C 30.07in /  1018.2hPa West 2.0mph /  3.2km/h 3.0mph /  4.8km/h 86% 0.00in /  0mm
13:51 80.6 °F /  27 °C 76.0 °F /  24.4 °C 30.08in /  1018.5hPa SSE 2.0mph /  3.2km/h 2.0mph /  3.2km/h 86% 0.00in /  0mm
13:55 79.8 °F /  26.6 °C 74.9 °F /  23.8 °C 30.08in /  1018.5hPa South 3.0mph /  4.8km/h 9.0mph /  14.5km/h 85% 0.00in /  0mm
14:01 78.3 °F /  25.7 °C 72.7 °F /  22.6 °C 30.07in /  1018.2hPa SSE 4.0mph /  6.4km/h 7.0mph /  11.3km/h 83% 0.00in /  0mm
14:06 77.2 °F /  25.1 °C 71.6 °F /  22 °C 30.07in /  1018.2hPa SE 6.0mph /  9.7km/h 10.0mph /  16.1km/h 83% 0.00in /  0mm
14:11 76.6 °F /  24.8 °C 72.1 °F /  22.3 °C 30.06in /  1017.8hPa East 3.0mph /  4.8km/h 5.0mph /  8km/h 86% 0.00in /  0mm
14:16 76.2 °F /  24.6 °C 72.1 °F /  22.3 °C 30.07in /  1018.2hPa SSW 3.0mph /  4.8km/h 6.0mph /  9.7km/h 87% 0.00in /  0mm
14:21 75.8 °F /  24.3 °C 72.0 °F /  22.2 °C 30.07in /  1018.2hPa WSW 2.0mph /  3.2km/h 3.0mph /  4.8km/h 88% 0.00in /  0mm
14:26 75.5 °F /  24.2 °C 72.0 °F /  22.2 °C 30.07in /  1018.2hPa WSW 1.0mph /  1.6km/h 2.0mph /  3.2km/h 89% 0.09in /  2.29mm
14:31 75.4 °F /  24.1 °C 72.3 °F /  22.4 °C 30.06in /  1017.8hPa SE 1.0mph /  1.6km/h 2.0mph /  3.2km/h 90% 0.09in /  2.29mm
14:37 75.5 °F /  24.2 °C 72.7 °F /  22.6 °C 30.06in /  1017.8hPa SSE 2.0mph /  3.2km/h 4.0mph /  6.4km/h 91% 0.05in /  1.27mm
14:42 75.4 °F /  24.1 °C 72.6 °F /  22.6 °C 30.06in /  1017.8hPa SSW 1.0mph /  1.6km/h 3.0mph /  4.8km/h 91% 0.00in /  0mm
14:47 75.5 °F /  24.2 °C 73.0 °F /  22.8 °C 30.07in /  1018.2hPa Calm   1.0mph /  1.6km/h 92% 0.00in /  0mm
14:52 75.6 °F /  24.2 °C 73.1 °F /  22.8 °C 30.08in /  1018.5hPa Calm   2.0mph /  3.2km/h 92% 0.00in /  0mm
14:57 75.6 °F /  24.2 °C 73.1 °F /  22.8 °C 30.07in /  1018.2hPa Calm   3.0mph /  4.8km/h 92% 0.00in /  0mm
15:02 75.7 °F /  24.3 °C 73.2 °F /  22.9 °C 30.07in /  1018.2hPa Calm   2.0mph /  3.2km/h 92% 0.00in /  0mm
15:07 75.7 °F /  24.3 °C 73.2 °F /  22.9 °C 30.07in /  1018.2hPa West 1.0mph /  1.6km/h 1.0mph /  1.6km/h 92% 0.00in /  0mm
15:12 75.8 °F /  24.3 °C 73.3 °F /  22.9 °C 30.07in /  1018.2hPa SW 1.0mph /  1.6km/h 2.0mph /  3.2km/h 92% 0.00in /  0mm
15:17 75.9 °F /  24.4 °C 73.4 °F /  23 °C 30.07in /  1018.2hPa Calm   2.0mph /  3.2km/h 92% 0.00in /  0mm
15:22 76.0 °F /  24.4 °C 73.5 °F /  23.1 °C 30.06in /  1017.8hPa SSE 2.0mph /  3.2km/h 3.0mph /  4.8km/h 92% 0.00in /  0mm
15:27 76.0 °F /  24.4 °C 73.5 °F /  23.1 °C 30.06in /  1017.8hPa SSE 2.0mph /  3.2km/h 3.0mph /  4.8km/h 92% 0.00in /  0mm
15:32 75.9 °F /  24.4 °C 73.4 °F /  23 °C 30.06in /  1017.8hPa SSE 2.0mph /  3.2km/h 4.0mph /  6.4km/h 92% 0.00in /  0mm
15:37 75.9 °F /  24.4 °C 73.4 °F /  23 °C 30.06in /  1017.8hPa SSE 1.0mph /  1.6km/h 2.0mph /  3.2km/h 92% 0.00in /  0mm
15:42 75.9 °F /  24.4 °C 73.4 °F /  23 °C 30.06in /  1017.8hPa Calm   2.0mph /  3.2km/h 92% 0.00in /  0mm
15:47 76.0 °F /  24.4 °C 73.5 °F /  23.1 °C 30.06in /  1017.8hPa Calm     92% 0.00in /  0mm
15:52 76.0 °F /  24.4 °C 73.5 °F /  23.1 °C 30.05in /  1017.5hPa SE 3.0mph /  4.8km/h 3.0mph /  4.8km/h 92% 0.00in /  0mm
15:57 75.9 °F /  24.4 °C 73.4 °F /  23 °C 30.05in /  1017.5hPa SE 1.0mph /  1.6km/h 3.0mph /  4.8km/h 92% 0.00in /  0mm
16:02 76.0 °F /  24.4 °C 73.5 °F /  23.1 °C 30.05in /  1017.5hPa SSE 3.0mph /  4.8km/h 3.0mph /  4.8km/h 92% 0.00in /  0mm
16:07 76.1 °F /  24.5 °C 73.6 °F /  23.1 °C 30.05in /  1017.5hPa SE 2.0mph /  3.2km/h 3.0mph /  4.8km/h 92% 0.00in /  0mm
16:12 76.2 °F /  24.6 °C 73.7 °F /  23.2 °C 30.05in /  1017.5hPa ESE 3.0mph /  4.8km/h 4.0mph /  6.4km/h 92% 0.00in /  0mm
16:17 76.4 °F /  24.7 °C 73.9 °F /  23.3 °C 30.05in /  1017.5hPa SE 2.0mph /  3.2km/h 3.0mph /  4.8km/h 92% 0.00in /  0mm
16:22 76.5 °F /  24.7 °C 74.0 °F /  23.3 °C 30.05in /  1017.5hPa SE 3.0mph /  4.8km/h 3.0mph /  4.8km/h 92% 0.00in /  0mm
16:27 76.7 °F /  24.8 °C 74.2 °F /  23.4 °C 30.05in /  1017.5hPa SSE 2.0mph /  3.2km/h 2.0mph /  3.2km/h 92% 0.00in /  0mm
16:32 77.0 °F /  25 °C 74.5 °F /  23.6 °C 30.05in /  1017.5hPa SE 1.0mph /  1.6km/h 2.0mph /  3.2km/h 92% 0.00in /  0mm
16:38 77.2 °F /  25.1 °C 74.7 °F /  23.7 °C 30.05in /  1017.5hPa SE 2.0mph /  3.2km/h 4.0mph /  6.4km/h 92% 0.00in /  0mm
16:43 77.5 °F /  25.3 °C 74.7 °F /  23.7 °C 30.05in /  1017.5hPa SE 3.0mph /  4.8km/h 4.0mph /  6.4km/h 91% 0.00in /  0mm
16:48 77.8 °F /  25.4 °C 75.0 °F /  23.9 °C 30.05in /  1017.5hPa ESE 2.0mph /  3.2km/h 3.0mph /  4.8km/h 91% 0.00in /  0mm
16:53 78.2 °F /  25.7 °C 75.0 °F /  23.9 °C 30.05in /  1017.5hPa SE 2.0mph /  3.2km/h 4.0mph /  6.4km/h 90% 0.00in /  0mm
16:58 78.8 °F /  26 °C 75.3 °F /  24.1 °C 30.04in /  1017.2hPa Calm   3.0mph /  4.8km/h 89% 0.00in /  0mm
17:03 79.5 °F /  26.4 °C 75.6 °F /  24.2 °C 30.04in /  1017.2hPa Calm   3.0mph /  4.8km/h 88% 0.00in /  0mm
17:08 80.2 °F /  26.8 °C 76.3 °F /  24.6 °C 30.04in /  1017.2hPa SSW 2.0mph /  3.2km/h 2.0mph /  3.2km/h 88% 0.00in /  0mm
17:13 80.8 °F /  27.1 °C 76.2 °F /  24.6 °C 30.04in /  1017.2hPa SE 2.0mph /  3.2km/h 3.0mph /  4.8km/h 86% 0.00in /  0mm
17:18 81.2 °F /  27.3 °C 76.3 °F /  24.6 °C 30.04in /  1017.2hPa Calm   2.0mph /  3.2km/h 85% 0.00in /  0mm
17:23 81.2 °F /  27.3 °C 76.3 °F /  24.6 °C 30.04in /  1017.2hPa Calm   2.0mph /  3.2km/h 85% 0.00in /  0mm
17:28 81.4 °F /  27.4 °C 77.2 °F /  25.1 °C 30.03in /  1016.8hPa Calm   2.0mph /  3.2km/h 87% 0.00in /  0mm
17:33 81.2 °F /  27.3 °C 75.6 °F /  24.2 °C 30.03in /  1016.8hPa Calm   3.0mph /  4.8km/h 83% 0.00in /  0mm
17:38 81.0 °F /  27.2 °C 75.7 °F /  24.3 °C 30.03in /  1016.8hPa Calm   3.0mph /  4.8km/h 84% 0.00in /  0mm
17:43 81.0 °F /  27.2 °C 75.7 °F /  24.3 °C 30.03in /  1016.8hPa ESE 2.0mph /  3.2km/h 2.0mph /  3.2km/h 84% 0.00in /  0mm
17:48 80.8 °F /  27.1 °C 76.2 °F /  24.6 °C 30.03in /  1016.8hPa East 3.0mph /  4.8km/h 4.0mph /  6.4km/h 86% 0.00in /  0mm
17:53 80.5 °F /  26.9 °C 75.9 °F /  24.4 °C 30.02in /  1016.5hPa East 2.0mph /  3.2km/h 5.0mph /  8km/h 86% 0.00in /  0mm
17:58 80.3 °F /  26.8 °C 76.1 °F /  24.5 °C 30.02in /  1016.5hPa ENE 2.0mph /  3.2km/h 4.0mph /  6.4km/h 87% 0.00in /  0mm
18:03 80.0 °F /  26.7 °C 75.8 °F /  24.3 °C 30.02in /  1016.5hPa East 2.0mph /  3.2km/h 3.0mph /  4.8km/h 87% 0.00in /  0mm
18:08 79.9 °F /  26.6 °C 76.0 °F /  24.4 °C 30.02in /  1016.5hPa East 2.0mph /  3.2km/h 3.0mph /  4.8km/h 88% 0.00in /  0mm
18:13 80.0 °F /  26.7 °C 76.1 °F /  24.5 °C 30.02in /  1016.5hPa ESE 3.0mph /  4.8km/h 3.0mph /  4.8km/h 88% 0.00in /  0mm
18:18 80.1 °F /  26.7 °C 76.2 °F /  24.6 °C 30.02in /  1016.5hPa ESE 1.0mph /  1.6km/h 2.0mph /  3.2km/h 88% 0.00in /  0mm
18:23 80.1 °F /  26.7 °C 76.2 °F /  24.6 °C 30.02in /  1016.5hPa East 1.0mph /  1.6km/h 3.0mph /  4.8km/h 88% 0.00in /  0mm
18:28 80.2 °F /  26.8 °C 76.7 °F /  24.8 °C 30.02in /  1016.5hPa SE 1.0mph /  1.6km/h 2.0mph /  3.2km/h 89% 0.00in /  0mm
18:33 80.3 °F /  26.8 °C 76.4 °F /  24.7 °C 30.02in /  1016.5hPa SE 3.0mph /  4.8km/h 4.0mph /  6.4km/h 88% 0.00in /  0mm
18:38 80.3 °F /  26.8 °C 76.4 °F /  24.7 °C 30.02in /  1016.5hPa SE 3.0mph /  4.8km/h 4.0mph /  6.4km/h 88% 0.00in /  0mm
18:43 80.3 °F /  26.8 °C 76.4 °F /  24.7 °C 30.02in /  1016.5hPa SE 1.0mph /  1.6km/h 4.0mph /  6.4km/h 88% 0.00in /  0mm
18:48 80.3 °F /  26.8 °C 76.4 °F /  24.7 °C 30.02in /  1016.5hPa East 2.0mph /  3.2km/h 4.0mph /  6.4km/h 88% 0.00in /  0mm
18:53 80.2 °F /  26.8 °C 76.3 °F /  24.6 °C 30.02in /  1016.5hPa ESE 2.0mph /  3.2km/h 3.0mph /  4.8km/h 88% 0.00in /  0mm
18:58 80.1 °F /  26.7 °C 76.6 °F /  24.8 °C 30.02in /  1016.5hPa ESE 1.0mph /  1.6km/h 3.0mph /  4.8km/h 89% 0.00in /  0mm
19:03 80.1 °F /  26.7 °C 76.6 °F /  24.8 °C 30.01in /  1016.1hPa ESE 3.0mph /  4.8km/h 3.0mph /  4.8km/h 89% 0.00in /  0mm
19:08 80.1 °F /  26.7 °C 76.6 °F /  24.8 °C 30.01in /  1016.1hPa SE 1.0mph /  1.6km/h 3.0mph /  4.8km/h 89% 0.00in /  0mm
19:13 80.2 °F /  26.8 °C 76.7 °F /  24.8 °C 30.01in /  1016.1hPa Calm   1.0mph /  1.6km/h 89% 0.00in /  0mm
19:18 80.3 °F /  26.8 °C 76.8 °F /  24.9 °C 30.01in /  1016.1hPa Calm   2.0mph /  3.2km/h 89% 0.00in /  0mm
19:23 80.4 °F /  26.9 °C 76.9 °F /  24.9 °C 30.01in /  1016.1hPa Calm   1.0mph /  1.6km/h 89% 0.00in /  0mm
19:28 80.5 °F /  26.9 °C 77.0 °F /  25 °C 30.01in /  1016.1hPa East 1.0mph /  1.6km/h 1.0mph /  1.6km/h 89% 0.00in /  0mm
19:33 80.3 °F /  26.8 °C 76.4 °F /  24.7 °C 30.01in /  1016.1hPa ESE 2.0mph /  3.2km/h 2.0mph /  3.2km/h 88% 0.00in /  0mm
19:38 80.1 °F /  26.7 °C 76.6 °F /  24.8 °C 30.01in /  1016.1hPa SE 1.0mph /  1.6km/h 2.0mph /  3.2km/h 89% 0.00in /  0mm
19:43 80.0 °F /  26.7 °C 76.8 °F /  24.9 °C 30.01in /  1016.1hPa ESE 1.0mph /  1.6km/h 2.0mph /  3.2km/h 90% 0.00in /  0mm
19:48 79.9 °F /  26.6 °C 76.7 °F /  24.8 °C 30.01in /  1016.1hPa ESE 1.0mph /  1.6km/h 1.0mph /  1.6km/h 90% 0.00in /  0mm
19:54 79.8 °F /  26.6 °C 76.9 °F /  24.9 °C 30.00in /  1015.8hPa ESE 2.0mph /  3.2km/h 2.0mph /  3.2km/h 91% 0.00in /  0mm
19:59 79.6 °F /  26.4 °C 76.8 °F /  24.9 °C 30.00in /  1015.8hPa ESE 2.0mph /  3.2km/h 3.0mph /  4.8km/h 91% 0.00in /  0mm
20:04 79.4 °F /  26.3 °C 76.6 °F /  24.8 °C 30.00in /  1015.8hPa SE 2.0mph /  3.2km/h 4.0mph /  6.4km/h 91% 0.00in /  0mm
20:09 79.2 °F /  26.2 °C 76.3 °F /  24.6 °C 30.00in /  1015.8hPa ESE 2.0mph /  3.2km/h 2.0mph /  3.2km/h 91% 0.00in /  0mm
20:14 79.0 °F /  26.1 °C 76.2 °F /  24.6 °C 30.01in /  1016.1hPa ESE 2.0mph /  3.2km/h 2.0mph /  3.2km/h 91% 0.00in /  0mm
20:19 78.8 °F /  26 °C 75.9 °F /  24.4 °C 30.01in /  1016.1hPa ESE 1.0mph /  1.6km/h 2.0mph /  3.2km/h 91% 0.00in /  0mm
20:24 78.5 °F /  25.8 °C 75.7 °F /  24.3 °C 30.01in /  1016.1hPa SE 1.0mph /  1.6km/h 4.0mph /  6.4km/h 91% 0.00in /  0mm
20:29 78.3 °F /  25.7 °C 75.8 °F /  24.3 °C 30.01in /  1016.1hPa ESE 1.0mph /  1.6km/h 3.0mph /  4.8km/h 92% 0.00in /  0mm
20:34 78.1 °F /  25.6 °C 75.6 °F /  24.2 °C 30.01in /  1016.1hPa ESE 1.0mph /  1.6km/h 2.0mph /  3.2km/h 92% 0.00in /  0mm
20:39 77.9 °F /  25.5 °C 75.4 °F /  24.1 °C 30.01in /  1016.1hPa ESE 1.0mph /  1.6km/h 1.0mph /  1.6km/h 92% 0.00in /  0mm
20:44 77.7 °F /  25.4 °C 75.2 °F /  24 °C 30.01in /  1016.1hPa Calm   1.0mph /  1.6km/h 92% 0.00in /  0mm
20:49 77.6 °F /  25.3 °C 75.1 °F /  23.9 °C 30.01in /  1016.1hPa East 1.0mph /  1.6km/h 2.0mph /  3.2km/h 92% 0.00in /  0mm
20:54 77.4 °F /  25.2 °C 74.9 °F /  23.8 °C 30.01in /  1016.1hPa Calm   1.0mph /  1.6km/h 92% 0.00in /  0mm
20:59 77.2 °F /  25.1 °C 74.7 °F /  23.7 °C 30.02in /  1016.5hPa ESE 2.0mph /  3.2km/h 2.0mph /  3.2km/h 92% 0.00in /  0mm
21:04 77.0 °F /  25 °C 74.5 °F /  23.6 °C 30.02in /  1016.5hPa Calm   1.0mph /  1.6km/h 92% 0.00in /  0mm
21:09 76.9 °F /  24.9 °C 74.4 °F /  23.6 °C 30.02in /  1016.5hPa Calm   2.0mph /  3.2km/h 92% 0.00in /  0mm
21:14 76.8 °F /  24.9 °C 74.3 °F /  23.5 °C 30.03in /  1016.8hPa Calm     92% 0.00in /  0mm
21:19 76.7 °F /  24.8 °C 74.2 °F /  23.4 °C 30.03in /  1016.8hPa NE 1.0mph /  1.6km/h 1.0mph /  1.6km/h 92% 0.00in /  0mm
21:24 76.6 °F /  24.8 °C 74.1 °F /  23.4 °C 30.03in /  1016.8hPa NE 1.0mph /  1.6km/h 1.0mph /  1.6km/h 92% 0.00in /  0mm
21:29 76.5 °F /  24.7 °C 74.0 °F /  23.3 °C 30.03in /  1016.8hPa Calm   1.0mph /  1.6km/h 92% 0.00in /  0mm
21:34 76.5 °F /  24.7 °C 74.0 °F /  23.3 °C 30.03in /  1016.8hPa Calm     92% 0.00in /  0mm
21:39 76.4 °F /  24.7 °C 73.9 °F /  23.3 °C 30.03in /  1016.8hPa NE 1.0mph /  1.6km/h 1.0mph /  1.6km/h 92% 0.00in /  0mm
21:44 76.4 °F /  24.7 °C 73.9 °F /  23.3 °C 30.03in /  1016.8hPa NE 1.0mph /  1.6km/h 1.0mph /  1.6km/h 92% 0.00in /  0mm
21:49 76.2 °F /  24.6 °C 73.7 °F /  23.2 °C 30.04in /  1017.2hPa Calm   1.0mph /  1.6km/h 92% 0.00in /  0mm
21:54 76.1 °F /  24.5 °C 73.6 °F /  23.1 °C 30.04in /  1017.2hPa Calm     92% 0.00in /  0mm
21:59 76.0 °F /  24.4 °C 73.5 °F /  23.1 °C 30.04in /  1017.2hPa Calm   1.0mph /  1.6km/h 92% 0.00in /  0mm
22:04 75.9 °F /  24.4 °C 73.4 °F /  23 °C 30.05in /  1017.5hPa Calm   1.0mph /  1.6km/h 92% 0.00in /  0mm
22:09 76.0 °F /  24.4 °C 73.5 °F /  23.1 °C 30.05in /  1017.5hPa ESE 1.0mph /  1.6km/h 1.0mph /  1.6km/h 92% 0.00in /  0mm
22:14 76.0 °F /  24.4 °C 73.5 °F /  23.1 °C 30.05in /  1017.5hPa SE 2.0mph /  3.2km/h 2.0mph /  3.2km/h 92% 0.00in /  0mm
22:19 75.9 °F /  24.4 °C 73.4 °F /  23 °C 30.05in /  1017.5hPa SE 2.0mph /  3.2km/h 3.0mph /  4.8km/h 92% 0.00in /  0mm
22:24 75.7 °F /  24.3 °C 73.2 °F /  22.9 °C 30.05in /  1017.5hPa East 2.0mph /  3.2km/h 3.0mph /  4.8km/h 92% 0.00in /  0mm
22:29 75.7 °F /  24.3 °C 73.2 °F /  22.9 °C 30.05in /  1017.5hPa ESE 1.0mph /  1.6km/h 2.0mph /  3.2km/h 92% 0.00in /  0mm
22:34 75.6 °F /  24.2 °C 73.1 °F /  22.8 °C 30.05in /  1017.5hPa ESE 1.0mph /  1.6km/h 1.0mph /  1.6km/h 92% 0.00in /  0mm
22:39 75.5 °F /  24.2 °C 73.0 °F /  22.8 °C 30.05in /  1017.5hPa East 1.0mph /  1.6km/h 3.0mph /  4.8km/h 92% 0.00in /  0mm
22:45 75.5 °F /  24.2 °C 73.0 °F /  22.8 °C 30.05in /  1017.5hPa Calm   2.0mph /  3.2km/h 92% 0.00in /  0mm
22:50 75.5 °F /  24.2 °C 73.0 °F /  22.8 °C 30.06in /  1017.8hPa ESE 2.0mph /  3.2km/h 2.0mph /  3.2km/h 92% 0.00in /  0mm
22:55 75.4 °F /  24.1 °C 72.9 °F /  22.7 °C 30.06in /  1017.8hPa ESE 2.0mph /  3.2km/h 3.0mph /  4.8km/h 92% 0.00in /  0mm
23:00 75.5 °F /  24.2 °C 73.0 °F /  22.8 °C 30.06in /  1017.8hPa East 2.0mph /  3.2km/h 3.0mph /  4.8km/h 92% 0.00in /  0mm
23:05 75.5 °F /  24.2 °C 73.0 °F /  22.8 °C 30.06in /  1017.8hPa ESE 2.0mph /  3.2km/h 2.0mph /  3.2km/h 92% 0.00in /  0mm
23:10 75.5 °F /  24.2 °C 73.0 °F /  22.8 °C 30.06in /  1017.8hPa ESE 2.0mph /  3.2km/h 3.0mph /  4.8km/h 92% 0.00in /  0mm
23:15 75.4 °F /  24.1 °C 72.9 °F /  22.7 °C 30.06in /  1017.8hPa East 2.0mph /  3.2km/h 2.0mph /  3.2km/h 92% 0.00in /  0mm
23:20 75.4 °F /  24.1 °C 72.9 °F /  22.7 °C 30.06in /  1017.8hPa ESE 2.0mph /  3.2km/h 3.0mph /  4.8km/h 92% 0.00in /  0mm
23:25 75.5 °F /  24.2 °C 73.0 °F /  22.8 °C 30.05in /  1017.5hPa Calm   2.0mph /  3.2km/h 92% 0.00in /  0mm
23:30 75.6 °F /  24.2 °C 73.1 °F /  22.8 °C 30.06in /  1017.8hPa Calm   1.0mph /  1.6km/h 92% 0.00in /  0mm
23:35 75.6 °F /  24.2 °C 73.1 °F /  22.8 °C 30.05in /  1017.5hPa East 1.0mph /  1.6km/h 2.0mph /  3.2km/h 92% 0.00in /  0mm
23:40 75.5 °F /  24.2 °C 73.0 °F /  22.8 °C 30.05in /  1017.5hPa Calm   2.0mph /  3.2km/h 92% 0.00in /  0mm
23:45 75.4 °F /  24.1 °C 72.9 °F /  22.7 °C 30.05in /  1017.5hPa Calm   1.0mph /  1.6km/h 92% 0.00in /  0mm
23:50 75.3 °F /  24.1 °C 72.8 °F /  22.7 °C 30.05in /  1017.5hPa Calm   1.0mph /  1.6km/h 92% 0.00in /  0mm
23:55 75.2 °F /  24 °C 72.7 °F /  22.6 °C 30.05in /  1017.5hPa SE 1.0mph /  1.6km/h 2.0mph /  3.2km/h 92% 0.00in /  0mm
Compliments of Weather Underground